Time;durP1;ratioP1;P1;durP2;ratioP2;P2;SDS_P1;SDS_P2;PMS_P1;PMS_P2;Temp;Humidity;BMP_temperature;BMP_pressure;BME280_temperature;BME280_humidity;BME280_pressure;Samples;Min_cycle;Max_cycle;Signal;HPM_P1;HPM_P2
2023/10/18 00:01:16;;;;;;;19.05;10.07;;;3.80;99.90;;;;;;5030505;28;20092;-69
2023/10/18 00:03:42;;;;;;;25.73;10.80;;;3.80;99.90;;;;;;4994178;28;20042;-69
2023/10/18 00:06:12;;;;;;;19.58;9.98;;;3.80;99.90;;;;;;5011265;28;20042;-69
2023/10/18 00:08:39;;;;;;;20.92;9.55;;;3.80;99.90;;;;;;4995733;28;20038;-69
2023/10/18 00:11:04;;;;;;;22.95;10.30;;;3.80;99.90;;;;;;4995097;28;20034;-69
2023/10/18 00:13:31;;;;;;;23.88;11.25;;;3.80;99.90;;;;;;5012548;28;20052;-69
2023/10/18 00:16:01;;;;;;;23.58;11.63;;;3.80;99.90;;;;;;4981472;28;20127;-68
2023/10/18 00:18:27;;;;;;;25.70;12.43;;;3.80;99.90;;;;;;5011313;28;20041;-68
2023/10/18 00:21:04;;;;;;;27.08;12.98;;;3.80;99.90;;;;;;4996049;28;20033;-68
2023/10/18 00:23:31;;;;;;;25.83;13.60;;;3.80;99.90;;;;;;5017128;28;20044;-69
2023/10/18 00:26:01;;;;;;;29.42;13.23;;;3.80;99.90;;;;;;5011705;28;20038;-69
2023/10/18 00:28:27;;;;;;;32.63;13.48;;;3.90;99.90;;;;;;5011835;28;20491;-68
2023/10/18 00:30:53;;;;;;;27.13;13.70;;;3.90;99.90;;;;;;5011556;28;20049;-69
2023/10/18 00:33:19;;;;;;;27.65;13.48;;;3.90;99.90;;;;;;4993780;28;20034;-69
2023/10/18 00:35:47;;;;;;;26.55;14.05;;;3.90;99.90;;;;;;5012752;28;20037;-69
2023/10/18 00:38:16;;;;;;;28.90;14.23;;;3.90;99.90;;;;;;4995190;28;20044;-68
2023/10/18 00:40:49;;;;;;;30.80;13.68;;;4.00;99.90;;;;;;5011563;28;20096;-68
2023/10/18 00:43:26;;;;;;;34.55;15.27;;;4.00;99.90;;;;;;5011856;28;20030;-68
2023/10/18 00:45:53;;;;;;;35.75;14.57;;;4.00;99.90;;;;;;5011450;28;20038;-68
2023/10/18 00:48:23;;;;;;;35.20;14.20;;;4.00;99.90;;;;;;4993708;28;20049;-68
2023/10/18 00:50:52;;;;;;;30.95;14.38;;;4.00;99.90;;;;;;5010664;28;20041;-68
2023/10/18 00:53:23;;;;;;;29.77;14.27;;;4.00;99.90;;;;;;5018951;28;20112;-69
2023/10/18 00:55:57;;;;;;;28.17;13.67;;;4.10;99.90;;;;;;5022861;28;20044;-68
2023/10/18 00:58:31;;;;;;;29.88;14.57;;;4.00;99.90;;;;;;4997483;28;20044;-68
2023/10/18 01:00:59;;;;;;;34.42;13.95;;;4.00;99.90;;;;;;5009799;28;20088;-68
2023/10/18 01:03:28;;;;;;;29.80;14.82;;;4.00;99.90;;;;;;5010155;28;20065;-68
2023/10/18 01:06:00;;;;;;;31.10;14.63;;;4.00;99.90;;;;;;5011184;28;20038;-69
2023/10/18 01:08:29;;;;;;;30.63;14.50;;;4.00;99.90;;;;;;5010758;28;20092;-69
2023/10/18 01:11:01;;;;;;;32.80;13.90;;;4.10;99.90;;;;;;4994746;28;20034;-68
2023/10/18 01:13:27;;;;;;;29.30;14.70;;;4.00;99.90;;;;;;5010295;28;20123;-69
2023/10/18 01:15:53;;;;;;;30.25;15.38;;;4.00;99.90;;;;;;4995870;28;20606;-69
2023/10/18 01:18:18;;;;;;;29.05;13.68;;;4.00;99.90;;;;;;5010025;28;20125;-69
2023/10/18 01:20:46;;;;;;;31.42;14.20;;;4.00;99.90;;;;;;4993460;28;20114;-69
2023/10/18 01:23:12;;;;;;;31.38;14.70;;;4.00;99.90;;;;;;4994060;28;20069;-69
2023/10/18 01:25:37;;;;;;;31.30;14.20;;;4.00;99.90;;;;;;5010524;28;20069;-69
2023/10/18 01:28:05;;;;;;;37.15;15.90;;;4.00;99.90;;;;;;5010168;28;20029;-68
2023/10/18 01:30:33;;;;;;;35.53;17.23;;;4.00;99.90;;;;;;5009633;28;20442;-68
2023/10/18 01:33:01;;;;;;;29.83;13.95;;;4.00;99.90;;;;;;4994218;28;20033;-69
2023/10/18 01:35:27;;;;;;;33.95;15.57;;;4.00;99.90;;;;;;5006868;28;20033;-69
2023/10/18 01:37:53;;;;;;;30.90;15.68;;;4.00;99.90;;;;;;5010560;28;20111;-69
2023/10/18 01:49:17;;;;;;;31.92;14.43;;;3.90;99.90;;;;;;5024800;28;20115;-70
2023/10/18 01:51:48;;;;;;;29.85;14.50;;;3.90;99.90;;;;;;5009477;28;20069;-69
2023/10/18 01:54:15;;;;;;;30.88;13.93;;;3.90;99.90;;;;;;4990947;28;20061;-69
2023/10/18 01:56:46;;;;;;;30.40;15.00;;;3.90;99.90;;;;;;5023233;28;20038;-69
2023/10/18 01:59:19;;;;;;;29.73;13.93;;;3.80;99.90;;;;;;5035286;28;20042;-70
2023/10/18 02:01:45;;;;;;;30.40;14.90;;;3.80;99.90;;;;;;5009482;28;20046;-70
2023/10/18 02:04:23;;;;;;;30.75;15.50;;;3.80;99.90;;;;;;5009739;28;20506;-69
2023/10/18 02:06:50;;;;;;;32.55;13.77;;;3.80;99.90;;;;;;4993063;28;20100;-69
2023/10/18 02:09:16;;;;;;;29.65;14.32;;;4.10;99.90;;;;;;5008473;28;20490;-70
2023/10/18 02:11:43;;;;;;;29.45;14.43;;;3.80;99.90;;;;;;5009016;28;20073;-69
2023/10/18 02:14:10;;;;;;;30.85;14.57;;;3.80;99.90;;;;;;5009800;28;20042;-69
2023/10/18 02:16:36;;;;;;;32.35;14.07;;;3.80;99.90;;;;;;5010095;28;20034;-69
2023/10/18 02:19:02;;;;;;;31.88;15.00;;;3.80;99.90;;;;;;5009453;28;20068;-69
2023/10/18 02:21:28;;;;;;;28.50;15.13;;;3.80;99.90;;;;;;5009781;28;20087;-70
2023/10/18 02:23:55;;;;;;;29.02;14.40;;;3.80;99.90;;;;;;4992921;28;20449;-70
2023/10/18 02:26:30;;;;;;;30.85;14.50;;;3.80;99.90;;;;;;4992050;28;20042;-70
2023/10/18 02:28:59;;;;;;;30.42;15.90;;;3.80;99.90;;;;;;5009078;28;20518;-70
2023/10/18 02:31:25;;;;;;;32.90;14.38;;;3.80;99.90;;;;;;5009582;28;20041;-70
2023/10/18 02:33:53;;;;;;;30.42;15.07;;;3.80;99.90;;;;;;4993019;28;20373;-70
2023/10/18 02:36:38;;;;;;;27.70;15.05;;;4.00;99.90;;;;;;5041498;28;20057;-69
2023/10/18 02:39:08;;;;;;;26.65;14.32;;;3.90;99.90;;;;;;4990166;28;20566;-69
2023/10/18 02:41:37;;;;;;;31.85;13.57;;;3.80;99.90;;;;;;5009393;28;20414;-69
2023/10/18 02:44:10;;;;;;;32.42;14.52;;;3.90;99.90;;;;;;5037116;28;20107;-70
2023/10/18 02:46:36;;;;;;;33.90;14.52;;;3.90;99.90;;;;;;5008460;28;20038;-70
2023/10/18 02:49:01;;;;;;;30.90;15.18;;;3.90;99.90;;;;;;5008740;28;20046;-70
2023/10/18 02:51:30;;;;;;;32.05;14.35;;;3.90;99.90;;;;;;5009696;28;20044;-70
2023/10/18 02:54:16;;;;;;;35.10;15.85;;;4.00;99.90;;;;;;4991723;28;20034;-70
2023/10/18 02:56:53;;;;;;;33.28;14.55;;;4.00;99.90;;;;;;5020614;28;20064;-70
2023/10/18 02:59:27;;;;;;;31.13;16.23;;;4.20;99.90;;;;;;5035662;28;20042;-70
2023/10/18 03:01:57;;;;;;;28.15;13.98;;;4.00;99.90;;;;;;4992759;28;20054;-70
2023/10/18 03:04:29;;;;;;;24.98;14.57;;;4.10;99.90;;;;;;4974900;28;20054;-70
2023/10/18 03:06:55;;;;;;;29.15;15.52;;;4.10;99.90;;;;;;4990969;28;20045;-70
2023/10/18 03:11:57;;;;;;;32.35;14.75;;;4.40;99.90;;;;;;5002177;28;20463;-70
2023/10/18 03:14:39;;;;;;;33.88;16.48;;;4.10;99.90;;;;;;5021625;28;20049;-70
2023/10/18 03:17:24;;;;;;;32.67;15.45;;;4.20;99.90;;;;;;5036808;28;20046;-70
2023/10/18 03:19:56;;;;;;;36.00;14.98;;;4.20;99.90;;;;;;5013601;28;20054;-70
2023/10/18 03:22:26;;;;;;;28.38;15.52;;;4.30;99.90;;;;;;5012585;28;20041;-70
2023/10/18 03:24:56;;;;;;;29.48;14.32;;;4.30;99.90;;;;;;4996215;28;20129;-70
2023/10/18 03:27:24;;;;;;;33.33;16.05;;;4.30;99.90;;;;;;5025577;28;20140;-70
2023/10/18 03:29:58;;;;;;;30.17;14.90;;;4.30;99.90;;;;;;4994064;28;20058;-70
2023/10/18 03:32:24;;;;;;;26.85;14.95;;;4.30;99.90;;;;;;4996483;28;20038;-70
2023/10/18 03:34:53;;;;;;;32.67;15.35;;;4.30;99.90;;;;;;5018004;28;20092;-70
2023/10/18 03:37:24;;;;;;;29.30;14.55;;;4.20;99.90;;;;;;4996409;28;20030;-70
2023/10/18 03:39:53;;;;;;;32.05;15.93;;;4.20;99.90;;;;;;5021838;28;20046;-70
2023/10/18 03:42:32;;;;;;;32.63;15.02;;;4.20;99.90;;;;;;5040999;28;20041;-70
2023/10/18 03:45:10;;;;;;;29.80;15.07;;;4.20;99.90;;;;;;4996213;28;20046;-70
2023/10/18 03:47:37;;;;;;;33.45;15.77;;;4.20;99.90;;;;;;4995114;28;20041;-70
2023/10/18 03:50:08;;;;;;;32.97;15.35;;;4.20;99.90;;;;;;5012529;28;20056;-70
2023/10/18 03:52:34;;;;;;;29.55;15.20;;;4.20;99.90;;;;;;5012690;28;20046;-70
2023/10/18 03:56:01;;;;;;;27.05;14.40;;;4.20;99.90;;;;;;5009987;28;20032;-69
2023/10/18 03:57:54;;;;;;;30.77;14.65;;;4.20;99.90;;;;;;5002856;28;20042;-70
2023/10/18 04:03:07;;;;;;;31.77;16.50;;;4.20;99.90;;;;;;5018933;28;20052;-70
2023/10/18 04:05:45;;;;;;;31.27;15.98;;;4.20;99.90;;;;;;5013184;28;20080;-70
2023/10/18 04:08:17;;;;;;;27.67;14.95;;;4.20;99.90;;;;;;5011529;28;20046;-69
2023/10/18 04:10:44;;;;;;;37.70;16.30;;;4.20;99.90;;;;;;5043400;28;20152;-70
2023/10/18 04:13:14;;;;;;;29.45;16.42;;;4.10;99.90;;;;;;5025133;28;20437;-70
2023/10/18 04:15:46;;;;;;;28.92;15.35;;;4.10;99.90;;;;;;5012216;28;20084;-69
2023/10/18 04:18:13;;;;;;;27.90;14.20;;;4.20;99.90;;;;;;4995353;28;20272;-70
2023/10/18 04:20:43;;;;;;;29.38;16.52;;;4.10;99.90;;;;;;5009731;28;20105;-69
2023/10/18 04:23:15;;;;;;;32.08;15.93;;;4.10;99.90;;;;;;5010928;28;20056;-70
2023/10/18 04:25:57;;;;;;;31.38;16.73;;;4.20;99.90;;;;;;5006605;28;20071;-70
2023/10/18 04:28:23;;;;;;;29.67;15.10;;;4.10;99.90;;;;;;5009435;28;20068;-70
2023/10/18 04:31:03;;;;;;;29.13;15.52;;;4.10;99.90;;;;;;5009660;28;20316;-70
2023/10/18 04:33:41;;;;;;;29.63;14.52;;;4.10;99.90;;;;;;4993464;28;20041;-70
2023/10/18 04:36:11;;;;;;;30.27;14.45;;;4.10;99.90;;;;;;5028167;28;20038;-70
2023/10/18 04:38:44;;;;;;;29.80;16.80;;;4.10;99.90;;;;;;5011543;28;20438;-70
2023/10/18 04:41:24;;;;;;;30.85;15.10;;;4.10;99.90;;;;;;5009602;28;20042;-70
2023/10/18 04:44:05;;;;;;;30.98;14.90;;;4.10;99.90;;;;;;5010636;28;20580;-70
2023/10/18 04:46:37;;;;;;;28.17;14.68;;;4.20;99.90;;;;;;5019094;28;20042;-70
2023/10/18 04:54:17;;;;;;;28.33;14.85;;;4.20;99.90;;;;;;5022939;28;20053;-70
2023/10/18 04:56:44;;;;;;;32.30;14.55;;;4.20;99.90;;;;;;5010804;28;20046;-70
2023/10/18 04:59:26;;;;;;;24.75;14.68;;;4.20;99.90;;;;;;5033105;28;20042;-70
2023/10/18 05:04:19;;;;;;;28.73;15.55;;;4.10;99.90;;;;;;5011232;28;20427;-70
2023/10/18 05:06:55;;;;;;;27.58;15.55;;;4.10;99.90;;;;;;5010915;28;20038;-69
2023/10/18 05:09:34;;;;;;;29.60;15.38;;;4.10;99.90;;;;;;5016262;28;20033;-70
2023/10/18 05:12:48;;;;;;;28.88;14.35;;;4.10;99.90;;;;;;5024355;28;20042;-70
2023/10/18 05:17:28;;;;;;;26.20;14.32;;;4.10;99.90;;;;;;5011339;28;20030;-70
2023/10/18 05:19:56;;;;;;;23.63;13.25;;;3.90;99.90;;;;;;5038410;28;20041;-70
2023/10/18 05:22:28;;;;;;;25.50;14.05;;;3.90;99.90;;;;;;4993817;28;20042;-70
2023/10/18 05:27:59;;;;;;;27.53;14.57;;;3.80;99.90;;;;;;5019868;28;20394;-70
2023/10/18 05:30:26;;;;;;;26.13;13.48;;;3.80;99.90;;;;;;5025150;28;20042;-70
2023/10/18 05:35:28;;;;;;;24.00;13.77;;;3.70;99.90;;;;;;5011526;28;20427;-70
2023/10/18 05:37:59;;;;;;;25.50;14.68;;;3.70;99.90;;;;;;5010729;28;20041;-70
2023/10/18 05:45:57;;;;;;;24.75;13.43;;;3.60;99.90;;;;;;5002231;28;20037;-70
2023/10/18 05:48:24;;;;;;;23.65;13.25;;;3.50;99.90;;;;;;4979297;28;20044;-69
2023/10/18 05:50:56;;;;;;;24.88;12.93;;;3.50;99.90;;;;;;5010001;28;20072;-70
2023/10/18 05:53:28;;;;;;;24.20;13.25;;;3.50;99.90;;;;;;4978269;28;20087;-70
2023/10/18 05:55:55;;;;;;;24.92;13.88;;;3.40;99.90;;;;;;5009701;28;20125;-69
2023/10/18 05:58:27;;;;;;;24.17;13.52;;;3.40;99.90;;;;;;5017572;28;20047;-70
2023/10/18 06:00:57;;;;;;;22.52;13.40;;;3.40;99.90;;;;;;4981170;28;20476;-70
2023/10/18 06:03:25;;;;;;;23.75;13.45;;;3.40;99.90;;;;;;4980977;28;20044;-67
2023/10/18 06:05:55;;;;;;;25.55;12.82;;;3.40;99.90;;;;;;4983305;28;20077;-70
2023/10/18 06:08:22;;;;;;;27.83;14.65;;;3.40;99.90;;;;;;4982956;28;20049;-70
2023/10/18 06:10:56;;;;;;;27.40;14.18;;;3.30;99.90;;;;;;4999397;28;20045;-70
2023/10/18 06:13:23;;;;;;;24.73;14.10;;;3.40;99.90;;;;;;5008327;28;20041;-70
2023/10/18 06:15:50;;;;;;;27.63;13.70;;;3.30;99.90;;;;;;5006468;28;20038;-70
2023/10/18 06:18:18;;;;;;;26.63;14.45;;;3.40;99.90;;;;;;4986728;28;20045;-71
2023/10/18 06:20:52;;;;;;;21.13;12.15;;;3.40;99.90;;;;;;5005673;28;20046;-70
2023/10/18 06:23:36;;;;;;;29.40;14.63;;;3.40;99.90;;;;;;5006605;28;20039;-68
2023/10/18 06:28:53;;;;;;;30.95;14.07;;;3.40;99.90;;;;;;5006908;28;20049;-69
2023/10/18 06:31:21;;;;;;;29.33;15.23;;;3.40;99.90;;;;;;5039016;28;20042;-69
2023/10/18 06:33:54;;;;;;;26.38;14.00;;;3.50;99.90;;;;;;4992990;28;20390;-69
2023/10/18 06:36:21;;;;;;;29.05;15.90;;;3.50;99.90;;;;;;5012558;28;20076;-69
2023/10/18 06:38:48;;;;;;;26.05;14.70;;;3.50;99.90;;;;;;5009849;28;20045;-69
2023/10/18 06:41:18;;;;;;;29.95;14.70;;;3.50;99.90;;;;;;5009629;28;20163;-69
2023/10/18 06:43:45;;;;;;;28.52;14.95;;;3.60;99.90;;;;;;4992053;28;20049;-69
2023/10/18 06:46:27;;;;;;;26.20;15.30;;;3.60;99.90;;;;;;5000292;28;20498;-69
2023/10/18 06:48:55;;;;;;;31.17;15.75;;;3.70;99.90;;;;;;5013270;28;20042;-69
2023/10/18 06:51:31;;;;;;;30.42;14.82;;;3.70;99.90;;;;;;5015109;28;20049;-69
2023/10/18 06:54:03;;;;;;;27.30;15.05;;;3.80;99.90;;;;;;5014932;28;20049;-69
2023/10/18 06:56:39;;;;;;;29.30;16.33;;;3.90;99.90;;;;;;5014283;28;20141;-69
2023/10/18 06:59:08;;;;;;;30.80;16.52;;;4.00;99.90;;;;;;4982953;28;20129;-69
2023/10/18 07:01:58;;;;;;;27.45;14.43;;;4.00;99.90;;;;;;5014919;28;20099;-69
2023/10/18 07:04:37;;;;;;;31.02;15.48;;;4.10;99.90;;;;;;4995907;28;20042;-68
2023/10/18 07:07:13;;;;;;;33.65;15.57;;;4.20;99.90;;;;;;5024031;28;20049;-69
2023/10/18 07:09:43;;;;;;;25.90;14.93;;;4.20;99.90;;;;;;4994721;28;20526;-69
2023/10/18 07:12:12;;;;;;;29.58;15.30;;;4.30;99.90;;;;;;5014733;28;20081;-69
2023/10/18 07:14:38;;;;;;;31.38;14.48;;;4.30;99.90;;;;;;5009832;28;20045;-69
2023/10/18 07:17:09;;;;;;;31.55;17.00;;;4.40;99.90;;;;;;5013977;28;20083;-69
2023/10/18 07:19:47;;;;;;;26.95;15.30;;;4.50;99.90;;;;;;4998255;28;20446;-68
2023/10/18 07:22:21;;;;;;;28.20;15.70;;;4.50;99.90;;;;;;5015982;28;20525;-69
2023/10/18 07:24:59;;;;;;;31.95;15.98;;;4.60;99.90;;;;;;5009761;28;20046;-69
2023/10/18 07:27:29;;;;;;;26.38;14.48;;;4.60;99.90;;;;;;5000160;28;20143;-69
2023/10/18 07:30:01;;;;;;;28.30;15.20;;;4.70;99.90;;;;;;5013658;28;20054;-69
2023/10/18 07:32:28;;;;;;;29.10;16.02;;;4.80;99.90;;;;;;5014401;28;20038;-69
2023/10/18 07:34:57;;;;;;;30.30;15.07;;;4.80;99.90;;;;;;5009036;28;20037;-69
2023/10/18 07:37:24;;;;;;;27.23;15.30;;;4.90;99.90;;;;;;5014702;28;20038;-70
2023/10/18 07:40:08;;;;;;;27.55;14.98;;;5.00;99.90;;;;;;5014288;28;20045;-69
2023/10/18 07:42:41;;;;;;;28.27;14.90;;;5.10;99.90;;;;;;4999875;28;20092;-69
2023/10/18 07:45:08;;;;;;;30.05;14.90;;;5.20;99.90;;;;;;5001422;28;20045;-70
2023/10/18 07:47:40;;;;;;;29.60;15.50;;;5.20;99.90;;;;;;5013727;28;20057;-69
2023/10/18 07:52:57;;;;;;;28.40;14.20;;;5.30;99.90;;;;;;4999906;28;20124;-69
2023/10/18 07:55:23;;;;;;;28.45;15.55;;;5.30;99.90;;;;;;5002004;28;20402;-69
2023/10/18 07:57:50;;;;;;;25.77;14.48;;;5.40;99.90;;;;;;5013377;28;20053;-69
2023/10/18 08:00:22;;;;;;;29.27;15.15;;;5.40;99.90;;;;;;5013679;28;20045;-69
2023/10/18 08:02:51;;;;;;;26.40;14.93;;;5.50;99.90;;;;;;5013300;28;20026;-69
2023/10/18 08:05:30;;;;;;;30.17;15.52;;;5.60;99.90;;;;;;5002024;28;20079;-70
2023/10/18 08:07:57;;;;;;;25.63;14.43;;;5.60;99.90;;;;;;5017307;28;20050;-70
2023/10/18 08:10:26;;;;;;;24.65;13.05;;;5.70;99.90;;;;;;5013218;28;20053;-70
2023/10/18 08:13:06;;;;;;;28.70;12.85;;;5.70;99.90;;;;;;5013111;28;20049;-70
2023/10/18 08:15:38;;;;;;;21.95;13.48;;;5.80;99.90;;;;;;5003894;28;20044;-70
2023/10/18 08:18:17;;;;;;;23.25;12.65;;;5.80;99.90;;;;;;5017296;28;20041;-70
2023/10/18 08:26:08;;;;;;;20.08;11.23;;;6.00;99.90;;;;;;5012441;28;20068;-70
2023/10/18 08:28:40;;;;;;;21.20;12.07;;;6.10;99.90;;;;;;4999024;28;20050;-69
2023/10/18 08:31:32;;;;;;;;;;;6.20;99.90;;;;;;5012925;28;20104;-70
2023/10/18 08:33:59;;;;;;;20.38;12.13;;;6.20;99.90;;;;;;5033322;28;19917;-70
2023/10/18 08:36:31;;;;;;;18.70;11.55;;;6.30;99.90;;;;;;5013516;28;20448;-69
2023/10/18 08:38:57;;;;;;;21.88;11.52;;;6.40;99.90;;;;;;4997557;28;20379;-70
2023/10/18 08:41:33;;;;;;;21.80;13.13;;;6.40;99.90;;;;;;5012556;28;20050;-70
2023/10/18 08:44:16;;;;;;;20.77;11.30;;;6.50;99.90;;;;;;4997498;28;20056;-69
2023/10/18 08:47:04;;;;;;;20.42;11.68;;;6.50;99.90;;;;;;5008697;28;20054;-69
2023/10/18 08:49:33;;;;;;;20.55;12.23;;;6.60;99.90;;;;;;5012288;28;20037;-70
2023/10/18 08:52:08;;;;;;;18.05;11.88;;;6.70;99.90;;;;;;4996127;28;20100;-70
2023/10/18 08:54:36;;;;;;;17.50;11.48;;;6.70;99.90;;;;;;5025806;28;20034;-70
2023/10/18 08:57:06;;;;;;;19.02;11.13;;;6.80;99.90;;;;;;5012547;28;20041;-70
2023/10/18 08:59:50;;;;;;;21.05;12.20;;;6.90;99.90;;;;;;5012522;28;20299;-70
2023/10/18 09:02:23;;;;;;;20.23;12.45;;;7.00;99.90;;;;;;5031664;28;20049;-70
2023/10/18 09:04:52;;;;;;;;;;;7.00;99.90;;;;;;5015129;28;20054;-70
2023/10/18 09:07:21;;;;;;;21.35;12.13;;;7.10;99.90;;;;;;5040106;28;19924;-69
2023/10/18 09:09:56;;;;;;;20.38;11.40;;;7.20;99.90;;;;;;5011203;28;20073;-69
2023/10/18 09:13:08;;;;;;;20.15;11.20;;;7.30;99.90;;;;;;5012269;28;20049;-69
2023/10/18 09:15:35;;;;;;;21.35;11.43;;;7.40;99.90;;;;;;5019289;28;20069;-69
2023/10/18 09:18:05;;;;;;;25.20;11.18;;;7.50;99.90;;;;;;5007462;28;20038;-69
2023/10/18 09:20:31;;;;;;;15.85;10.65;;;7.60;99.90;;;;;;5012488;28;20050;-68
2023/10/18 09:23:04;;;;;;;15.63;9.98;;;7.70;99.90;;;;;;4995609;28;20549;-70
2023/10/18 09:25:47;;;;;;;20.17;16.67;;;7.70;99.90;;;;;;4998734;28;20174;-69
2023/10/18 09:28:32;;;;;;;17.92;11.00;;;7.80;99.90;;;;;;5012265;28;20045;-69
2023/10/18 09:31:09;;;;;;;18.75;16.08;;;7.90;99.90;;;;;;4997488;28;20590;-69
2023/10/18 09:33:48;;;;;;;16.70;10.63;;;8.00;99.90;;;;;;4997720;28;20397;-69
2023/10/18 09:36:25;;;;;;;15.73;9.95;;;8.10;99.90;;;;;;5006647;28;20530;-69
2023/10/18 09:38:57;;;;;;;17.42;14.15;;;8.10;99.90;;;;;;5009336;28;20049;-70
2023/10/18 09:41:27;;;;;;;16.73;14.27;;;8.20;99.90;;;;;;4999814;28;20125;-69
2023/10/18 09:43:52;;;;;;;16.15;13.10;;;8.20;99.90;;;;;;5012317;28;20502;-69
2023/10/18 09:46:19;;;;;;;18.23;13.27;;;8.30;99.90;;;;;;5009900;28;20050;-69
2023/10/18 09:48:46;;;;;;;15.25;13.57;;;8.30;99.90;;;;;;4998819;28;20042;-69
2023/10/18 09:51:20;;;;;;;15.57;13.05;;;8.30;99.90;;;;;;5014304;28;20069;-69
2023/10/18 09:53:54;;;;;;;15.10;13.50;;;8.40;99.90;;;;;;5012081;28;20490;-69
2023/10/18 09:56:26;;;;;;;15.68;13.52;;;8.40;99.90;;;;;;4995269;28;20050;-69
2023/10/18 09:59:04;;;;;;;15.98;13.60;;;8.50;99.90;;;;;;5011271;28;20529;-69
2023/10/18 10:02:16;;;;;;;18.92;13.75;;;8.50;99.90;;;;;;5011401;28;20399;-69
2023/10/18 10:04:18;;;;;;;15.65;13.65;;;8.50;99.90;;;;;;5005553;28;20080;-69
2023/10/18 10:06:47;;;;;;;15.48;13.38;;;8.60;99.90;;;;;;4995230;28;20495;-70
2023/10/18 10:09:14;;;;;;;16.60;13.77;;;8.70;99.90;;;;;;4995018;28;20050;-69
2023/10/18 10:11:43;;;;;;;17.15;12.98;;;8.70;99.90;;;;;;5010240;28;20077;-69
2023/10/18 10:14:11;;;;;;;14.63;13.05;;;8.80;99.90;;;;;;5044173;28;20565;-68
2023/10/18 10:16:39;;;;;;;18.70;13.80;;;8.90;99.90;;;;;;4994748;28;20051;-69
2023/10/18 10:19:11;;;;;;;14.75;12.38;;;9.00;99.90;;;;;;5027255;28;20042;-69
2023/10/18 10:21:38;;;;;;;15.43;11.98;;;9.10;99.90;;;;;;5013548;28;20569;-69
2023/10/18 10:24:29;;;;;;;14.93;12.60;;;9.10;99.90;;;;;;4994859;28;20469;-69
2023/10/18 10:26:53;;;;;;;14.95;12.07;;;9.20;99.90;;;;;;5009332;28;20056;-69
2023/10/18 10:32:04;;;;;;;14.15;11.38;;;9.30;99.90;;;;;;5011049;28;20050;-70
2023/10/18 10:34:32;;;;;;;14.93;11.57;;;9.30;99.90;;;;;;4994638;28;20045;-68
2023/10/18 10:37:23;;;;;;;14.18;11.90;;;9.40;99.90;;;;;;5044109;28;20037;-68
2023/10/18 10:39:49;;;;;;;13.20;11.73;;;9.40;99.90;;;;;;5012967;28;20049;-67
2023/10/18 10:42:49;;;;;;;15.63;12.15;;;9.50;99.90;;;;;;5010477;28;20090;-68
2023/10/18 10:45:31;;;;;;;14.32;11.45;;;9.50;99.90;;;;;;4994707;28;20042;-67
2023/10/18 10:51:12;;;;;;;13.35;10.10;;;9.70;99.90;;;;;;5010173;28;20467;-67
2023/10/18 10:54:00;;;;;;;15.25;11.48;;;9.70;99.90;;;;;;5010970;28;20042;-68
2023/10/18 10:56:33;;;;;;;13.50;10.98;;;9.70;99.90;;;;;;5015087;28;20046;-68
2023/10/18 10:59:03;;;;;;;15.20;11.20;;;9.80;99.90;;;;;;5010556;28;20073;-68
2023/10/18 11:04:27;;;;;;;13.10;10.73;;;9.90;99.90;;;;;;5023708;28;20041;-68
2023/10/18 11:06:57;;;;;;;13.32;11.45;;;10.00;99.90;;;;;;4994828;28;20044;-68
2023/10/18 11:09:34;;;;;;;12.25;10.95;;;10.00;99.90;;;;;;5010510;28;20050;-68
2023/10/18 11:12:07;;;;;;;13.77;10.52;;;10.10;99.90;;;;;;5009774;28;20046;-68
2023/10/18 11:14:37;;;;;;;12.13;10.70;;;10.10;99.90;;;;;;5009664;28;20138;-68
2023/10/18 11:19:41;;;;;;;14.27;11.07;;;10.20;99.90;;;;;;5010392;28;20054;-67
2023/10/18 11:22:11;;;;;;;12.13;10.43;;;10.20;99.90;;;;;;5010647;28;20038;-68
2023/10/18 11:24:41;;;;;;;12.30;9.68;;;10.20;99.90;;;;;;5021027;28;20042;-67
2023/10/18 11:27:10;;;;;;;11.82;10.60;;;10.20;99.90;;;;;;5010729;28;20038;-67
2023/10/18 11:29:41;;;;;;;13.52;10.63;;;10.20;99.90;;;;;;5009903;28;20061;-67
2023/10/18 11:32:07;;;;;;;11.50;9.98;;;10.30;99.90;;;;;;4994399;28;20049;-68
2023/10/18 11:34:40;;;;;;;10.90;9.30;;;10.30;99.90;;;;;;5001621;28;20034;-68
2023/10/18 11:37:08;;;;;;;13.23;10.95;;;10.40;99.90;;;;;;5014532;28;20390;-68
2023/10/18 11:39:34;;;;;;;14.85;10.55;;;10.50;99.90;;;;;;5014031;28;20552;-68
2023/10/18 11:42:00;;;;;;;9.95;8.95;;;10.50;99.90;;;;;;5013810;28;20137;-68
2023/10/18 11:44:34;;;;;;;11.32;8.80;;;10.60;99.90;;;;;;5024275;28;20050;-68
2023/10/18 11:47:19;;;;;;;10.10;8.98;;;10.60;99.90;;;;;;5014040;28;20450;-68
2023/10/18 11:49:48;;;;;;;11.10;9.02;;;10.70;99.90;;;;;;5013889;28;20065;-68
2023/10/18 11:52:22;;;;;;;10.52;9.32;;;10.80;99.90;;;;;;5046043;28;20030;-68
2023/10/18 11:55:02;;;;;;;10.63;9.50;;;10.90;99.90;;;;;;5014236;28;20077;-68
2023/10/18 11:57:29;;;;;;;10.40;9.10;;;11.00;99.90;;;;;;5013766;28;20120;-68
2023/10/18 11:59:56;;;;;;;12.15;9.85;;;11.10;99.90;;;;;;4997702;28;20088;-67
2023/10/18 12:02:28;;;;;;;9.18;8.27;;;11.10;99.90;;;;;;5015376;28;20038;-68
2023/10/18 12:04:57;;;;;;;9.30;8.23;;;11.10;99.90;;;;;;5013109;28;20458;-68
2023/10/18 12:07:24;;;;;;;11.23;8.82;;;11.10;99.90;;;;;;5022108;28;20107;-68
2023/10/18 12:09:54;;;;;;;12.52;9.80;;;11.10;99.90;;;;;;5013371;28;20462;-68
2023/10/18 12:12:20;;;;;;;9.98;8.77;;;11.10;99.90;;;;;;5014454;28;20388;-68
2023/10/18 12:14:48;;;;;;;10.77;9.07;;;11.20;99.90;;;;;;4998108;28;20044;-68
2023/10/18 12:17:15;;;;;;;10.95;9.07;;;11.20;99.90;;;;;;4996153;28;20037;-69
2023/10/18 12:19:45;;;;;;;10.55;9.45;;;11.10;99.90;;;;;;5046607;28;20399;-69
2023/10/18 12:22:15;;;;;;;10.80;9.57;;;11.10;99.90;;;;;;5018539;28;20399;-68
2023/10/18 12:24:41;;;;;;;11.90;10.00;;;11.10;99.90;;;;;;5004503;28;20041;-68
2023/10/18 12:27:53;;;;;;;11.73;10.38;;;11.10;99.90;;;;;;5012927;28;20588;-68
2023/10/18 12:29:54;;;;;;;12.02;10.25;;;11.10;99.90;;;;;;5039529;28;20058;-68
2023/10/18 12:32:30;;;;;;;12.52;10.38;;;11.10;99.90;;;;;;5017659;28;20042;-68
2023/10/18 12:34:57;;;;;;;12.05;10.05;;;11.10;99.90;;;;;;5012793;28;20042;-68
2023/10/18 12:37:32;;;;;;;12.93;10.50;;;11.00;99.90;;;;;;5013332;28;20040;-68
2023/10/18 12:39:59;;;;;;;13.68;10.60;;;11.00;99.90;;;;;;5013814;28;20038;-68
2023/10/18 12:42:25;;;;;;;14.07;11.20;;;11.00;99.90;;;;;;5017811;28;20034;-67
2023/10/18 12:44:55;;;;;;;15.35;11.63;;;11.00;99.90;;;;;;5012839;28;20205;-67
2023/10/18 12:47:21;;;;;;;14.60;11.13;;;11.00;99.90;;;;;;5012582;28;20057;-67
2023/10/18 12:49:52;;;;;;;13.13;10.60;;;11.00;99.90;;;;;;5012293;28;20045;-67
2023/10/18 12:53:16;;;;;;;14.45;11.30;;;10.90;99.90;;;;;;5017375;28;20034;-68
2023/10/18 12:58:06;;;;;;;14.70;11.60;;;10.90;99.90;;;;;;5012442;28;20054;-68
2023/10/18 13:00:42;;;;;;;12.32;10.35;;;10.90;99.90;;;;;;5012364;28;20068;-67
2023/10/18 13:05:43;;;;;;;15.30;11.55;;;11.00;99.90;;;;;;4996625;28;20116;-67
2023/10/18 13:08:16;;;;;;;15.73;11.57;;;11.00;99.90;;;;;;5028430;28;20561;-68
2023/10/18 13:10:57;;;;;;;14.77;11.57;;;11.10;99.90;;;;;;5011863;28;20046;-67
2023/10/18 13:13:23;;;;;;;14.48;10.65;;;11.00;99.90;;;;;;5013177;28;20042;-67
2023/10/18 13:15:48;;;;;;;14.95;10.07;;;11.10;99.90;;;;;;5015914;28;20057;-67
2023/10/18 13:18:14;;;;;;;17.52;10.80;;;11.10;99.90;;;;;;5012031;28;20042;-68
2023/10/18 13:20:47;;;;;;;15.70;11.43;;;11.10;99.90;;;;;;5012738;28;20099;-68
2023/10/18 13:23:18;;;;;;;13.15;11.48;;;11.20;99.90;;;;;;4996519;28;20049;-67
2023/10/18 13:25:54;;;;;;;13.68;11.20;;;11.20;99.90;;;;;;5013893;28;20061;-68
2023/10/18 13:31:30;;;;;;;14.23;10.43;;;11.30;99.90;;;;;;5015641;28;20053;-68
2023/10/18 13:33:58;;;;;;;11.82;10.38;;;11.40;99.90;;;;;;5006941;28;20092;-67
2023/10/18 13:36:23;;;;;;;12.80;10.52;;;11.50;99.90;;;;;;5012284;28;20103;-67
2023/10/18 13:38:50;;;;;;;12.98;10.45;;;11.50;99.90;;;;;;5011814;28;20128;-67
2023/10/18 13:41:17;;;;;;;14.20;10.52;;;11.50;99.90;;;;;;5012481;28;20242;-68
2023/10/18 13:43:43;;;;;;;14.95;10.40;;;11.60;99.90;;;;;;5014414;28;20171;-68
2023/10/18 13:46:18;;;;;;;13.48;10.25;;;11.60;99.90;;;;;;4995618;28;20442;-68
2023/10/18 13:48:50;;;;;;;16.92;11.25;;;11.70;99.90;;;;;;5012248;28;20547;-68
2023/10/18 13:51:19;;;;;;;15.70;11.18;;;11.60;99.90;;;;;;5012773;28;20045;-68
2023/10/18 13:53:45;;;;;;;15.93;10.63;;;11.60;99.90;;;;;;5015990;28;20037;-67
2023/10/18 13:56:15;;;;;;;13.75;10.68;;;11.60;99.90;;;;;;4994994;28;20034;-67
2023/10/18 13:58:41;;;;;;;13.23;9.88;;;11.50;99.90;;;;;;5010935;28;20597;-68
2023/10/18 14:01:17;;;;;;;15.63;10.93;;;11.40;99.90;;;;;;5000386;28;20388;-68
2023/10/18 14:03:43;;;;;;;15.50;10.90;;;11.40;99.90;;;;;;5011018;28;20490;-68